createdAt,value
2022-11-13T00:00:09.709Z,6.53
2022-11-13T00:02:56.551Z,6.48
2022-11-13T00:05:43.582Z,6.55
2022-11-13T00:08:31.045Z,6.01
2022-11-13T00:11:20.073Z,6.40
2022-11-13T00:14:06.949Z,6.40
2022-11-13T00:16:58.629Z,6.33
2022-11-13T00:19:58.578Z,6.56
2022-11-13T00:22:48.155Z,6.28
2022-11-13T00:25:36.099Z,6.57
2022-11-13T00:28:28.310Z,6.33
2022-11-13T00:31:17.699Z,6.55
2022-11-13T00:34:33.259Z,6.29
2022-11-13T00:37:14.982Z,6.49
2022-11-13T00:40:07.760Z,6.55
2022-11-13T00:42:54.565Z,6.43
2022-11-13T00:45:43.412Z,6.48
2022-11-13T00:48:36.544Z,6.46
2022-11-13T00:51:24.751Z,6.60
2022-11-13T00:54:40.470Z,6.58
2022-11-13T00:57:45.833Z,6.56
2022-11-13T01:00:36.553Z,6.59
2022-11-13T01:03:23.558Z,6.56
2022-11-13T01:06:29.197Z,6.42
2022-11-13T01:09:16.662Z,6.50
2022-11-13T01:12:03.332Z,6.27
2022-11-13T01:14:49.897Z,6.27
2022-11-13T01:17:37.290Z,6.17
2022-11-13T01:20:26.627Z,6.43
2022-11-13T01:23:13.512Z,6.03
2022-11-13T01:26:27.976Z,6.08
2022-11-13T01:29:14.645Z,6.30
2022-11-13T01:32:01.206Z,5.97
2022-11-13T01:34:47.819Z,6.09
2022-11-13T01:37:34.469Z,6.04
2022-11-13T01:40:21.206Z,6.03
2022-11-13T01:43:32.377Z,6.27
2022-11-13T01:46:32.976Z,6.30
2022-11-13T01:49:39.570Z,6.07
2022-11-13T01:52:39.575Z,6.20
2022-11-13T01:55:26.323Z,6.25
2022-11-13T01:58:15.334Z,6.16
2022-11-13T02:01:02.333Z,6.02
2022-11-13T02:03:48.994Z,6.30
2022-11-13T02:07:02.713Z,6.29
2022-11-13T02:09:56.131Z,6.22
2022-11-13T02:12:46.862Z,6.26
2022-11-13T02:15:35.209Z,5.99
2022-11-13T02:18:24.026Z,6.21
2022-11-13T02:21:42.302Z,5.93
2022-11-13T02:24:45.044Z,6.17
2022-11-13T02:27:40.144Z,6.16
2022-11-13T02:30:33.869Z,6.05
2022-11-13T02:33:33.223Z,6.18
2022-11-13T02:36:24.199Z,6.15
2022-11-13T02:39:13.328Z,6.25
2022-11-13T02:42:00.052Z,5.99
2022-11-13T02:44:47.137Z,6.10
2022-11-13T02:47:34.548Z,6.15
2022-11-13T02:50:21.604Z,5.92
2022-11-13T02:53:08.298Z,6.14
2022-11-13T02:55:55.158Z,6.06
2022-11-13T02:58:41.788Z,6.06
2022-11-13T03:01:28.479Z,5.66
2022-11-13T03:04:14.840Z,6.08
2022-11-13T03:07:02.029Z,5.64
2022-11-13T03:09:48.980Z,6.03
2022-11-13T03:12:35.905Z,5.75
2022-11-13T03:15:22.370Z,6.03
2022-11-13T03:18:09.177Z,6.10
2022-11-13T03:20:56.002Z,5.68
2022-11-13T03:23:45.548Z,5.90
2022-11-13T03:26:32.080Z,6.12
2022-11-13T03:29:18.531Z,6.12
2022-11-13T03:32:05.502Z,6.11
2022-11-13T03:34:52.370Z,6.15
2022-11-13T03:37:39.259Z,6.05
2022-11-13T03:40:25.949Z,5.76
2022-11-13T03:43:12.465Z,5.62
2022-11-13T03:45:59.508Z,5.64
2022-11-13T03:48:46.109Z,6.06
2022-11-13T03:51:32.865Z,5.80
2022-11-13T03:54:19.342Z,6.10
2022-11-13T03:57:06.373Z,5.97
2022-11-13T03:59:52.961Z,5.97
2022-11-13T04:02:40.523Z,6.06
2022-11-13T04:05:27.191Z,6.06
2022-11-13T04:08:13.977Z,6.04
2022-11-13T04:11:12.242Z,5.95
2022-11-13T04:14:00.272Z,6.06
2022-11-13T04:16:46.988Z,5.98
2022-11-13T04:19:35.181Z,5.95
2022-11-13T04:22:21.908Z,6.03
2022-11-13T04:25:09.615Z,5.99
2022-11-13T04:27:56.387Z,6.06
2022-11-13T04:30:43.266Z,6.05
2022-11-13T04:33:30.092Z,6.13
2022-11-13T04:36:16.723Z,5.85
2022-11-13T04:39:03.551Z,5.84
2022-11-13T04:42:09.142Z,5.65
2022-11-13T04:44:56.384Z,6.03
2022-11-13T04:47:43.081Z,6.05
2022-11-13T04:50:31.178Z,6.12
2022-11-13T04:53:17.813Z,5.44
2022-11-13T04:56:04.814Z,6.05
2022-11-13T04:58:52.015Z,5.73
2022-11-13T05:01:38.696Z,6.15
2022-11-13T05:04:25.276Z,6.03
2022-11-13T05:07:12.693Z,5.68
2022-11-13T05:09:59.505Z,6.11
2022-11-13T05:12:46.062Z,5.98
2022-11-13T05:15:32.998Z,6.02
2022-11-13T05:18:19.349Z,5.81
2022-11-13T05:21:09.004Z,6.23
2022-11-13T05:23:55.573Z,6.15
2022-11-13T05:26:42.227Z,6.21
2022-11-13T05:29:28.595Z,6.20
2022-11-13T05:32:15.466Z,5.98
2022-11-13T05:35:02.533Z,6.16
2022-11-13T05:37:49.829Z,6.11
2022-11-13T05:40:36.312Z,5.75
2022-11-13T05:43:23.181Z,6.16
2022-11-13T05:46:24.662Z,6.25
2022-11-13T05:49:11.466Z,6.25
2022-11-13T05:51:58.321Z,6.30
2022-11-13T05:54:45.010Z,6.31
2022-11-13T05:57:32.414Z,6.34
2022-11-13T06:00:19.592Z,6.33
2022-11-13T06:03:06.214Z,6.29
2022-11-13T06:05:52.759Z,6.29
2022-11-13T06:08:40.191Z,6.29
2022-11-13T06:11:29.606Z,6.06
2022-11-13T06:14:17.566Z,6.36
2022-11-13T06:17:03.978Z,6.31
2022-11-13T06:19:51.043Z,6.20
2022-11-13T06:22:37.535Z,6.40
2022-11-13T06:25:24.772Z,6.46
2022-11-13T06:28:11.318Z,6.52
2022-11-13T06:31:08.220Z,6.49
2022-11-13T06:33:56.180Z,6.49
2022-11-13T06:36:42.879Z,6.42
2022-11-13T06:39:29.729Z,6.57
2022-11-13T06:42:16.158Z,6.32
2022-11-13T06:45:03.233Z,6.29
2022-11-13T06:47:50.293Z,6.27
2022-11-13T06:50:37.328Z,6.47
2022-11-13T06:53:23.919Z,6.47
2022-11-13T06:56:11.932Z,6.48
2022-11-13T06:58:58.967Z,6.45
2022-11-13T07:01:45.655Z,6.24
2022-11-13T07:04:32.484Z,6.48
2022-11-13T07:07:19.412Z,6.54
2022-11-13T07:10:06.794Z,6.53
2022-11-13T07:12:54.815Z,6.28
2022-11-13T07:15:41.607Z,6.34
2022-11-13T07:18:30.455Z,6.55
2022-11-13T07:21:17.435Z,6.35
2022-11-13T07:24:04.031Z,6.52
2022-11-13T07:26:51.029Z,6.65
2022-11-13T07:29:39.518Z,6.68
2022-11-13T07:32:26.040Z,6.59
2022-11-13T07:35:13.154Z,6.72
2022-11-13T07:38:00.127Z,6.81
2022-11-13T07:40:46.578Z,6.46
2022-11-13T07:43:34.070Z,6.94
2022-11-13T07:46:20.846Z,7.06
2022-11-13T07:49:07.567Z,7.12
2022-11-13T07:51:54.434Z,7.13
2022-11-13T07:54:41.198Z,7.05
2022-11-13T07:57:27.729Z,7.21
2022-11-13T08:00:15.463Z,7.24
2022-11-13T08:03:13.614Z,7.07
2022-11-13T08:06:06.089Z,7.35
2022-11-13T08:08:52.866Z,7.33
2022-11-13T08:11:40.530Z,7.32
2022-11-13T08:14:27.804Z,7.35
2022-11-13T08:17:14.614Z,7.14
2022-11-13T08:20:01.397Z,7.11
2022-11-13T08:22:48.030Z,7.39
2022-11-13T08:25:37.307Z,7.08
2022-11-13T08:28:24.483Z,7.19
2022-11-13T08:31:16.666Z,7.44
2022-11-13T08:34:03.381Z,7.35
2022-11-13T08:36:50.025Z,7.17
2022-11-13T08:39:37.036Z,7.39
2022-11-13T08:42:23.887Z,7.12
2022-11-13T08:45:11.404Z,7.31
2022-11-13T08:48:03.570Z,7.64
2022-11-13T08:50:54.565Z,7.48
2022-11-13T08:53:41.043Z,7.55
2022-11-13T08:56:27.706Z,7.64
2022-11-13T08:59:15.616Z,7.73
2022-11-13T09:02:02.595Z,7.87
2022-11-13T09:04:49.374Z,8.09
2022-11-13T09:07:36.503Z,8.11
2022-11-13T09:10:23.130Z,7.90
2022-11-13T09:13:11.729Z,7.98
2022-11-13T09:16:00.565Z,8.08
2022-11-13T09:18:51.318Z,8.09
2022-11-13T09:21:38.083Z,7.96
2022-11-13T09:24:24.736Z,8.14
2022-11-13T09:27:11.247Z,8.13
2022-11-13T09:29:58.040Z,8.11
2022-11-13T09:32:46.335Z,8.56
2022-11-13T09:35:36.586Z,8.23
2022-11-13T09:38:23.940Z,8.48
2022-11-13T09:41:17.542Z,8.60
2022-11-13T09:44:14.147Z,8.42
2022-11-13T09:47:12.458Z,8.61
2022-11-13T09:50:17.887Z,8.65
2022-11-13T09:53:05.893Z,8.63
2022-11-13T09:56:29.975Z,8.51
2022-11-13T09:59:51.425Z,8.60
2022-11-13T10:03:59.410Z,8.53
2022-11-13T10:07:02.647Z,8.72
2022-11-13T10:10:16.594Z,8.95
2022-11-13T10:13:04.472Z,8.76
2022-11-13T10:15:55.991Z,8.67
2022-11-13T10:18:44.960Z,9.19
2022-11-13T10:21:47.214Z,9.44
2022-11-13T10:24:44.189Z,9.35
2022-11-13T10:27:30.829Z,9.51
2022-11-13T10:30:19.975Z,9.54
2022-11-13T10:33:09.894Z,9.29
2022-11-13T10:36:04.377Z,9.42
2022-11-13T10:39:02.690Z,9.49
2022-11-13T10:41:52.813Z,9.32
2022-11-13T10:44:41.061Z,9.21
2022-11-13T10:48:01.963Z,9.21
2022-11-13T10:50:40.386Z,9.26
2022-11-13T10:53:38.858Z,9.15
2022-11-13T10:56:35.462Z,8.91
2022-11-13T10:59:22.952Z,9.09
2022-11-13T11:02:21.611Z,9.03
2022-11-13T11:05:22.101Z,9.00
2022-11-13T11:08:11.195Z,8.99
2022-11-13T11:11:26.573Z,9.04
2022-11-13T11:14:30.497Z,9.21
2022-11-13T11:17:20.116Z,9.08
2022-11-13T11:20:59.174Z,9.42
2022-11-13T11:24:15.755Z,9.52
2022-11-13T11:27:25.672Z,9.38
2022-11-13T11:30:27.038Z,9.35
2022-11-13T11:33:43.244Z,9.61
2022-11-13T11:36:33.701Z,9.65
2022-11-13T11:39:20.018Z,9.70
2022-11-13T11:42:34.446Z,9.72
2022-11-13T11:45:38.153Z,9.71
2022-11-13T11:48:31.727Z,9.61
2022-11-13T11:51:45.546Z,9.75
2022-11-13T11:54:51.714Z,9.70
2022-11-13T11:57:59.338Z,9.76
2022-11-13T12:00:57.819Z,9.52
2022-11-13T12:04:14.171Z,9.54
2022-11-13T12:07:32.313Z,9.28
2022-11-13T12:10:32.945Z,9.39
2022-11-13T12:14:03.808Z,9.46
2022-11-13T12:17:17.188Z,9.34
2022-11-13T12:20:49.502Z,9.31
2022-11-13T12:24:07.397Z,9.11
2022-11-13T12:27:15.474Z,8.96
2022-11-13T12:30:22.195Z,8.92
2022-11-13T12:33:27.102Z,8.89
2022-11-13T12:36:14.585Z,8.77
2022-11-13T12:39:56.760Z,8.94
2022-11-13T12:43:04.579Z,8.90
2022-11-13T12:46:00.434Z,8.87
2022-11-13T12:48:48.811Z,8.79
2022-11-13T12:51:41.279Z,9.00
2022-11-13T12:54:38.194Z,8.88
2022-11-13T12:57:29.910Z,8.65
2022-11-13T13:00:28.027Z,8.54
2022-11-13T13:03:38.670Z,9.02
2022-11-13T13:07:05.690Z,8.96
2022-11-13T13:10:18.217Z,8.73
2022-11-13T13:13:23.907Z,8.51
2022-11-13T13:16:12.233Z,8.93
2022-11-13T13:19:33.523Z,8.86
2022-11-13T13:22:34.116Z,8.76
2022-11-13T13:25:35.085Z,8.55
2022-11-13T13:28:25.666Z,8.75
2022-11-13T13:31:26.279Z,8.56
2022-11-13T13:34:42.994Z,8.49
2022-11-13T13:37:38.185Z,8.83
2022-11-13T13:40:27.958Z,8.73
2022-11-13T13:43:54.885Z,8.82
2022-11-13T13:46:42.490Z,8.60
2022-11-13T13:49:29.613Z,8.49
2022-11-13T13:52:17.106Z,8.37
2022-11-13T13:55:08.039Z,8.13
2022-11-13T13:57:55.789Z,8.36
2022-11-13T14:01:05.178Z,8.13
2022-11-13T14:03:49.311Z,8.52
2022-11-13T14:06:36.637Z,8.61
2022-11-13T14:09:27.017Z,8.55
2022-11-13T14:12:21.991Z,8.43
2022-11-13T14:15:28.505Z,8.43
2022-11-13T14:18:17.763Z,8.33
2022-11-13T14:21:23.162Z,8.48
2022-11-13T14:24:48.576Z,8.08
2022-11-13T14:27:35.360Z,8.50
2022-11-13T14:30:31.814Z,8.42
2022-11-13T14:33:31.421Z,8.32
2022-11-13T14:36:33.479Z,8.28
2022-11-13T14:39:33.707Z,8.27
2022-11-13T14:42:23.030Z,8.22
2022-11-13T14:45:19.778Z,8.20
2022-11-13T14:48:26.795Z,8.12
2022-11-13T14:51:29.349Z,8.00
2022-11-13T14:55:08.133Z,8.01
2022-11-13T14:57:51.013Z,7.94
2022-11-13T15:00:41.801Z,7.89
2022-11-13T15:03:28.651Z,7.89
2022-11-13T15:06:25.963Z,7.86
2022-11-13T15:09:16.723Z,7.77
2022-11-13T15:12:03.634Z,7.77
2022-11-13T15:14:51.419Z,7.58
2022-11-13T15:17:38.674Z,7.70
2022-11-13T15:20:28.701Z,7.74
2022-11-13T15:23:17.096Z,7.76
2022-11-13T15:26:04.037Z,7.37
2022-11-13T15:28:51.350Z,7.49
2022-11-13T15:31:43.935Z,7.55
2022-11-13T15:34:30.793Z,7.69
2022-11-13T15:37:17.759Z,7.84
2022-11-13T15:40:05.267Z,7.81
2022-11-13T15:42:51.966Z,7.84
2022-11-13T15:45:43.788Z,7.86
2022-11-13T15:48:31.031Z,7.84
2022-11-13T15:51:46.169Z,7.90
2022-11-13T15:54:36.842Z,7.89
2022-11-13T15:57:27.257Z,7.89
2022-11-13T16:00:25.257Z,7.64
2022-11-13T16:03:12.907Z,7.90
2022-11-13T16:06:00.442Z,7.89
2022-11-13T16:08:48.493Z,7.60
2022-11-13T16:11:35.678Z,7.74
2022-11-13T16:14:25.023Z,7.74
2022-11-13T16:17:21.760Z,7.52
2022-11-13T16:20:18.154Z,7.75
2022-11-13T16:23:04.875Z,7.51
2022-11-13T16:25:54.730Z,7.73
2022-11-13T16:29:12.045Z,7.70
2022-11-13T16:31:49.035Z,7.48
2022-11-13T16:34:35.508Z,7.64
2022-11-13T16:37:24.916Z,7.64
2022-11-13T16:40:32.234Z,7.53
2022-11-13T16:43:19.535Z,7.49
2022-11-13T16:46:37.390Z,7.59
2022-11-13T16:49:24.456Z,7.64
2022-11-13T16:52:11.197Z,7.62
2022-11-13T16:55:02.249Z,7.67
2022-11-13T16:57:51.904Z,7.69
2022-11-13T17:00:38.940Z,7.70
2022-11-13T17:03:25.441Z,7.64
2022-11-13T17:06:36.948Z,7.66
2022-11-13T17:09:23.664Z,7.44
2022-11-13T17:12:11.636Z,7.46
2022-11-13T17:14:58.622Z,7.64
2022-11-13T17:17:45.914Z,7.43
2022-11-13T17:20:32.706Z,7.62
2022-11-13T17:23:19.652Z,7.69
2022-11-13T17:26:06.954Z,7.72
2022-11-13T17:28:57.292Z,7.54
2022-11-13T17:31:44.525Z,7.63
2022-11-13T17:34:33.002Z,7.63
2022-11-13T17:37:24.902Z,7.47
2022-11-13T17:40:12.410Z,7.68
2022-11-13T17:42:58.904Z,7.71
2022-11-13T17:45:52.743Z,7.44
2022-11-13T17:48:40.294Z,7.68
2022-11-13T17:51:27.528Z,7.65
2022-11-13T17:54:14.322Z,7.64
2022-11-13T17:57:02.404Z,7.60
2022-11-13T17:59:48.967Z,7.67
2022-11-13T18:02:36.041Z,7.65
2022-11-13T18:05:23.044Z,7.25
2022-11-13T18:08:14.674Z,7.64
2022-11-13T18:11:13.002Z,7.64
2022-11-13T18:13:59.957Z,7.52
2022-11-13T18:16:46.788Z,7.31
2022-11-13T18:19:33.995Z,7.45
2022-11-13T18:22:20.630Z,7.21
2022-11-13T18:25:08.816Z,7.43
2022-11-13T18:27:57.943Z,7.41
2022-11-13T18:30:45.251Z,7.35
2022-11-13T18:33:33.183Z,6.77
2022-11-13T18:36:20.368Z,7.52
2022-11-13T18:39:06.905Z,7.14
2022-11-13T18:41:54.034Z,7.29
2022-11-13T18:44:40.949Z,7.32
2022-11-13T18:47:28.015Z,7.53
2022-11-13T18:50:14.687Z,7.50
2022-11-13T18:53:01.741Z,7.49
2022-11-13T18:55:48.109Z,7.24
2022-11-13T18:58:39.981Z,7.21
2022-11-13T19:01:33.832Z,7.41
2022-11-13T19:04:23.206Z,7.34
2022-11-13T19:07:12.643Z,7.16
2022-11-13T19:10:02.762Z,7.38
2022-11-13T19:12:49.390Z,7.33
2022-11-13T19:15:38.617Z,7.29
2022-11-13T19:18:25.227Z,7.35
2022-11-13T19:21:17.106Z,7.38
2022-11-13T19:24:03.992Z,7.42
2022-11-13T19:26:52.221Z,7.39
2022-11-13T19:29:39.078Z,7.42
2022-11-13T19:32:25.702Z,7.40
2022-11-13T19:35:12.243Z,7.38
2022-11-13T19:38:00.675Z,7.08
2022-11-13T19:40:52.384Z,7.36
2022-11-13T19:43:41.558Z,7.40
2022-11-13T19:46:32.185Z,7.41
2022-11-13T19:49:20.377Z,7.25
2022-11-13T19:52:07.513Z,7.49
2022-11-13T19:54:58.161Z,7.28
2022-11-13T19:57:46.172Z,7.12
2022-11-13T20:00:33.715Z,7.51
2022-11-13T20:03:20.330Z,7.50
2022-11-13T20:06:08.641Z,7.52
2022-11-13T20:08:55.823Z,7.44
2022-11-13T20:11:42.637Z,7.22
2022-11-13T20:14:31.144Z,7.30
2022-11-13T20:17:21.134Z,7.42
2022-11-13T20:20:09.627Z,7.44
2022-11-13T20:22:57.062Z,7.30
2022-11-13T20:25:51.897Z,7.48
2022-11-13T20:28:39.653Z,7.48
2022-11-13T20:31:27.941Z,7.46
2022-11-13T20:34:15.101Z,7.48
2022-11-13T20:37:01.572Z,7.19
2022-11-13T20:39:49.026Z,7.32
2022-11-13T20:42:36.112Z,7.48
2022-11-13T20:45:22.544Z,7.41
2022-11-13T20:48:09.259Z,7.36
2022-11-13T20:54:00.584Z,7.48
2022-11-13T20:56:47.552Z,7.36
2022-11-13T20:59:34.816Z,7.49
2022-11-13T21:02:31.018Z,6.87
2022-11-13T21:05:17.692Z,7.35
2022-11-13T21:08:04.797Z,7.31
2022-11-13T21:10:51.327Z,7.44
2022-11-13T21:13:38.414Z,7.45
2022-11-13T21:16:27.798Z,7.43
2022-11-13T21:19:14.399Z,7.42
2022-11-13T21:22:02.164Z,7.34
2022-11-13T21:24:49.744Z,7.26
2022-11-13T21:27:37.392Z,7.44
2022-11-13T21:30:24.642Z,7.40
2022-11-13T21:33:13.667Z,7.16
2022-11-13T21:36:12.888Z,6.93
2022-11-13T21:38:59.558Z,7.37
2022-11-13T21:41:53.789Z,7.06
2022-11-13T21:44:53.226Z,7.34
2022-11-13T21:47:39.771Z,7.33
2022-11-13T21:50:26.292Z,7.36
2022-11-13T21:53:13.891Z,7.34
2022-11-13T21:56:00.341Z,7.35
2022-11-13T21:58:47.328Z,7.39
2022-11-13T22:01:38.621Z,7.12
2022-11-13T22:04:26.537Z,7.29
2022-11-13T22:07:12.778Z,7.37
2022-11-13T22:10:02.916Z,7.34
2022-11-13T22:12:53.476Z,7.31
2022-11-13T22:15:40.839Z,7.32
2022-11-13T22:18:27.739Z,7.27
2022-11-13T22:21:15.828Z,7.38
2022-11-13T22:24:02.558Z,7.21
2022-11-13T22:26:49.640Z,7.31
2022-11-13T22:29:36.185Z,7.34
2022-11-13T22:32:23.227Z,7.27
2022-11-13T22:35:10.107Z,7.02
2022-11-13T22:37:57.423Z,7.37
2022-11-13T22:40:44.429Z,7.34
2022-11-13T22:43:40.634Z,7.39
2022-11-13T22:46:30.480Z,7.41
2022-11-13T22:49:17.080Z,7.38
2022-11-13T22:52:04.036Z,7.12
2022-11-13T22:54:50.695Z,7.35
2022-11-13T22:57:37.104Z,7.41
2022-11-13T23:00:24.039Z,7.32
2022-11-13T23:03:10.786Z,7.35
2022-11-13T23:06:06.031Z,7.32
2022-11-13T23:08:53.689Z,7.05
2022-11-13T23:11:42.761Z,7.32
2022-11-13T23:14:29.288Z,7.07
2022-11-13T23:17:16.442Z,7.01
2022-11-13T23:20:03.345Z,6.55
2022-11-13T23:22:50.524Z,6.88
2022-11-13T23:25:37.623Z,7.31
2022-11-13T23:28:24.419Z,6.96
2022-11-13T23:31:12.209Z,7.33
2022-11-13T23:33:59.383Z,7.34
2022-11-13T23:36:45.775Z,7.30
2022-11-13T23:39:33.429Z,7.32
2022-11-13T23:42:39.172Z,7.35
2022-11-13T23:45:27.070Z,7.36
2022-11-13T23:48:13.873Z,7.36
2022-11-13T23:51:02.675Z,7.36
2022-11-13T23:53:49.001Z,7.35
2022-11-13T23:56:36.132Z,7.31
2022-11-13T23:59:22.479Z,7.16
